Time;durP1;ratioP1;P1;durP2;ratioP2;P2;SDS_P1;SDS_P2;PMS_P1;PMS_P2;Temp;Humidity;BMP_temperature;BMP_pressure;BME280_temperature;BME280_humidity;BME280_pressure;Samples;Min_cycle;Max_cycle;Signal;HPM_P1;HPM_P2
2020/12/25 00:01:29;;;;;;;13.50;2.65;;;-0.60;99.90;;;;;;5053171;28;20021;-80
2020/12/25 00:03:56;;;;;;;24.58;2.78;;;-0.60;99.90;;;;;;5052999;28;20088;-81
2020/12/25 00:06:23;;;;;;;16.67;2.25;;;-0.60;99.90;;;;;;5051805;28;20036;-80
2020/12/25 00:08:48;;;;;;;19.35;2.92;;;-0.60;99.90;;;;;;5052990;28;20090;-80
2020/12/25 00:11:14;;;;;;;26.73;3.22;;;-0.60;99.90;;;;;;5067989;28;20025;-80
2020/12/25 00:13:40;;;;;;;21.15;2.75;;;-0.60;99.90;;;;;;5052855;28;20391;-80
2020/12/25 00:16:05;;;;;;;32.25;5.93;;;-0.70;99.90;;;;;;5052645;28;20033;-81
2020/12/25 00:18:31;;;;;;;9.82;2.45;;;-0.70;99.90;;;;;;5052960;28;20096;-80
2020/12/25 00:20:56;;;;;;;24.92;3.17;;;-0.70;99.90;;;;;;5068159;28;20381;-81
2020/12/25 00:23:22;;;;;;;14.63;3.13;;;-0.70;99.90;;;;;;5068144;28;20025;-81
2020/12/25 00:25:48;;;;;;;19.90;2.47;;;-0.70;99.90;;;;;;5052594;28;20072;-80
2020/12/25 00:28:14;;;;;;;13.70;2.78;;;-0.70;99.90;;;;;;5068022;28;20120;-80
2020/12/25 00:30:43;;;;;;;20.80;4.15;;;-0.70;99.90;;;;;;5052690;28;20179;-81
2020/12/25 00:33:09;;;;;;;16.35;3.83;;;-0.70;99.90;;;;;;5052608;28;20032;-80
2020/12/25 00:35:35;;;;;;;20.73;2.70;;;-0.70;99.90;;;;;;5052152;28;20021;-81
2020/12/25 00:38:00;;;;;;;19.17;3.92;;;-0.70;99.90;;;;;;5052417;28;20021;-79
2020/12/25 00:40:26;;;;;;;14.15;3.25;;;-0.70;99.90;;;;;;5052568;28;20513;-81
2020/12/25 00:42:51;;;;;;;12.98;3.55;;;-0.70;99.90;;;;;;5052451;28;20029;-79
2020/12/25 00:45:18;;;;;;;16.38;3.72;;;-0.70;99.90;;;;;;5052254;28;20035;-81
2020/12/25 00:47:44;;;;;;;12.80;2.50;;;-0.70;99.90;;;;;;5052344;28;20017;-81
2020/12/25 00:50:10;;;;;;;16.85;2.63;;;-0.70;99.90;;;;;;5052188;28;20120;-81
2020/12/25 00:52:35;;;;;;;26.23;2.53;;;-0.80;99.90;;;;;;5052298;28;20499;-81
2020/12/25 00:55:01;;;;;;;15.75;2.45;;;-0.80;99.90;;;;;;5051963;28;20084;-81
2020/12/25 00:57:27;;;;;;;9.18;2.20;;;-0.80;99.90;;;;;;5067760;28;20031;-83
2020/12/25 00:59:52;;;;;;;10.30;3.60;;;-1.00;99.90;;;;;;5052177;28;20029;-80
2020/12/25 01:02:18;;;;;;;16.13;2.35;;;-1.10;99.90;;;;;;5067503;28;20487;-80
2020/12/25 01:04:43;;;;;;;27.30;2.95;;;-1.20;99.90;;;;;;5051786;28;20029;-81
2020/12/25 01:07:09;;;;;;;15.82;2.50;;;-1.30;99.90;;;;;;5051757;28;20126;-80
2020/12/25 01:09:35;;;;;;;15.05;2.33;;;-1.30;99.90;;;;;;5062318;28;20477;-81
2020/12/25 01:12:02;;;;;;;19.95;3.15;;;-1.20;99.90;;;;;;5051999;28;20032;-80
2020/12/25 01:14:28;;;;;;;20.35;3.10;;;-1.30;99.90;;;;;;5050391;28;20025;-80
2020/12/25 01:16:55;;;;;;;24.67;3.63;;;-1.30;99.90;;;;;;5051883;28;20492;-80
2020/12/25 01:19:27;;;;;;;15.77;2.58;;;-1.40;99.90;;;;;;5065429;28;20032;-80
2020/12/25 01:21:53;;;;;;;14.52;2.47;;;-1.40;99.90;;;;;;5071152;28;20028;-79
2020/12/25 01:24:18;;;;;;;16.67;2.20;;;-1.40;99.90;;;;;;5070378;28;20020;-80
2020/12/25 01:26:44;;;;;;;11.40;2.13;;;-1.40;99.90;;;;;;5071796;28;20026;-80
2020/12/25 01:29:10;;;;;;;6.68;1.98;;;-1.40;99.90;;;;;;5071721;28;20029;-80
2020/12/25 01:31:36;;;;;;;18.08;3.20;;;-1.40;99.90;;;;;;5071865;28;20473;-80
2020/12/25 01:34:02;;;;;;;14.25;2.67;;;-1.40;99.90;;;;;;5071677;28;20531;-80
2020/12/25 01:36:28;;;;;;;23.80;3.88;;;-1.50;99.90;;;;;;5070356;28;20143;-80
2020/12/25 01:38:54;;;;;;;10.80;2.67;;;-1.50;99.90;;;;;;5071753;28;20670;-79
2020/12/25 01:41:20;;;;;;;6.63;2.03;;;-1.60;99.90;;;;;;5071687;28;20025;-80
2020/12/25 01:43:45;;;;;;;13.95;2.10;;;-1.60;99.90;;;;;;5071414;28;20507;-80
2020/12/25 01:46:12;;;;;;;13.13;2.30;;;-1.60;99.90;;;;;;5071725;28;20024;-80
2020/12/25 01:48:38;;;;;;;20.38;1.95;;;-1.60;99.90;;;;;;5071792;28;20469;-80
2020/12/25 01:51:05;;;;;;;19.90;2.78;;;-1.50;99.90;;;;;;5071557;28;20154;-80
2020/12/25 01:53:33;;;;;;;12.27;3.10;;;-1.60;99.90;;;;;;5071593;28;20033;-79
2020/12/25 01:55:59;;;;;;;18.00;2.85;;;-1.70;99.90;;;;;;5071366;28;20020;-79
2020/12/25 01:58:28;;;;;;;13.38;2.47;;;-1.70;99.90;;;;;;5070078;28;20437;-80
2020/12/25 02:00:53;;;;;;;10.98;1.83;;;-1.80;99.90;;;;;;5070208;28;20154;-79
2020/12/25 02:03:19;;;;;;;25.42;2.22;;;-1.80;99.90;;;;;;5071474;28;20444;-80
2020/12/25 02:05:45;;;;;;;11.25;2.58;;;-1.80;99.90;;;;;;5069963;28;20029;-80
2020/12/25 02:08:13;;;;;;;15.38;2.20;;;-1.90;99.90;;;;;;5071325;28;20021;-79
2020/12/25 02:10:39;;;;;;;7.05;1.70;;;-1.90;99.90;;;;;;5052729;28;20021;-80
2020/12/25 02:13:06;;;;;;;13.48;1.50;;;-2.10;99.90;;;;;;5051327;28;20100;-80
2020/12/25 02:15:32;;;;;;;11.45;2.05;;;-2.00;99.90;;;;;;5050991;28;20040;-80
2020/12/25 02:17:58;;;;;;;11.85;2.28;;;-2.00;99.90;;;;;;5051210;28;20044;-79
2020/12/25 02:20:24;;;;;;;19.92;2.97;;;-2.00;99.90;;;;;;5051256;28;20470;-79
2020/12/25 02:22:49;;;;;;;13.55;2.45;;;-2.00;99.90;;;;;;5050052;28;20029;-79
2020/12/25 02:25:15;;;;;;;7.43;1.90;;;-2.10;99.90;;;;;;5050925;28;20075;-80
2020/12/25 02:27:41;;;;;;;10.65;2.25;;;-2.20;99.90;;;;;;5051075;28;20397;-80
2020/12/25 02:30:07;;;;;;;12.02;1.75;;;-2.20;99.90;;;;;;5050003;28;20032;-80
2020/12/25 02:32:36;;;;;;;7.38;2.20;;;-2.20;99.90;;;;;;5051262;28;20481;-79
2020/12/25 02:35:03;;;;;;;6.95;1.55;;;-2.20;99.90;;;;;;5054108;28;20029;-80
2020/12/25 02:37:29;;;;;;;12.32;2.45;;;-2.20;99.90;;;;;;5054773;28;20021;-79
2020/12/25 02:39:55;;;;;;;15.40;1.58;;;-2.20;99.90;;;;;;5054668;28;20036;-79
2020/12/25 02:42:20;;;;;;;14.45;1.75;;;-2.20;99.90;;;;;;5053559;28;20028;-79
2020/12/25 02:44:46;;;;;;;10.40;1.58;;;-2.20;99.90;;;;;;5053302;28;20029;-79
2020/12/25 02:47:12;;;;;;;9.95;1.63;;;-2.10;99.90;;;;;;5054661;28;20035;-79
2020/12/25 02:49:38;;;;;;;14.68;2.35;;;-2.10;99.90;;;;;;5054663;28;20532;-80
2020/12/25 02:52:04;;;;;;;9.80;1.35;;;-2.10;99.90;;;;;;5054638;28;20457;-79
2020/12/25 02:54:30;;;;;;;8.63;2.13;;;-2.30;99.90;;;;;;5054228;28;20106;-79
2020/12/25 02:56:56;;;;;;;12.52;1.80;;;-2.40;99.90;;;;;;5054525;28;20029;-79
2020/12/25 02:59:23;;;;;;;12.77;1.95;;;-2.40;99.90;;;;;;5054478;28;20068;-80
2020/12/25 03:01:49;;;;;;;13.48;1.58;;;-2.40;99.90;;;;;;5054284;28;20036;-79
2020/12/25 03:04:15;;;;;;;7.85;1.83;;;-2.50;99.90;;;;;;5054109;28;20025;-79
2020/12/25 03:06:41;;;;;;;6.10;1.55;;;-2.50;99.90;;;;;;5052334;28;20021;-79
2020/12/25 03:09:07;;;;;;;4.03;1.45;;;-2.60;99.90;;;;;;5053249;28;20051;-80
2020/12/25 03:11:32;;;;;;;8.85;1.60;;;-2.70;99.90;;;;;;5054180;28;20025;-79
2020/12/25 03:13:58;;;;;;;9.30;1.98;;;-2.70;99.90;;;;;;5069404;28;20049;-79
2020/12/25 03:16:23;;;;;;;8.27;1.73;;;-2.80;99.90;;;;;;5069314;28;20025;-79
2020/12/25 03:18:49;;;;;;;6.25;1.92;;;-2.70;99.90;;;;;;5053970;28;20036;-79
2020/12/25 03:21:14;;;;;;;6.28;1.35;;;-2.80;99.90;;;;;;5069510;28;20070;-80
2020/12/25 03:23:40;;;;;;;13.38;2.15;;;-2.70;99.90;;;;;;5053769;28;20492;-79
2020/12/25 03:26:05;;;;;;;8.25;1.83;;;-2.70;99.90;;;;;;5053865;28;20432;-79
2020/12/25 03:28:31;;;;;;;3.35;1.50;;;-2.80;99.90;;;;;;5053816;28;20029;-79
2020/12/25 03:30:56;;;;;;;9.85;1.70;;;-2.80;99.90;;;;;;5053879;28;20039;-79
2020/12/25 03:33:22;;;;;;;8.52;1.75;;;-2.70;99.90;;;;;;5053878;28;20448;-79
2020/12/25 03:35:48;;;;;;;12.73;1.85;;;-2.80;99.90;;;;;;5053426;28;20040;-80
2020/12/25 03:38:13;;;;;;;14.60;1.88;;;-2.80;99.90;;;;;;5053536;28;20017;-80
2020/12/25 03:40:39;;;;;;;6.28;1.95;;;-2.80;99.90;;;;;;5053677;28;20032;-79
2020/12/25 03:43:04;;;;;;;11.00;1.90;;;-2.80;99.90;;;;;;5053659;28;20025;-80
2020/12/25 03:45:32;;;;;;;21.45;2.30;;;-2.80;99.90;;;;;;5067976;28;20033;-80
2020/12/25 03:48:00;;;;;;;9.40;1.63;;;-2.90;99.90;;;;;;5053473;28;20029;-79
2020/12/25 03:50:28;;;;;;;13.50;1.90;;;-2.90;99.90;;;;;;5068916;28;20115;-80
2020/12/25 03:52:54;;;;;;;5.43;1.60;;;-2.90;99.90;;;;;;5068684;28;20500;-79
2020/12/25 03:55:20;;;;;;;5.78;1.48;;;-2.90;99.90;;;;;;5053172;28;20029;-79
2020/12/25 03:57:46;;;;;;;3.20;1.48;;;-2.90;99.90;;;;;;5053338;28;20032;-79
2020/12/25 04:00:11;;;;;;;8.18;3.47;;;-2.90;99.90;;;;;;5053387;28;20028;-79
2020/12/25 04:02:37;;;;;;;6.53;1.83;;;-2.90;99.90;;;;;;5068218;28;20040;-79
2020/12/25 04:05:03;;;;;;;5.57;1.77;;;-2.80;99.90;;;;;;5068445;28;20045;-80
2020/12/25 04:07:29;;;;;;;13.15;2.53;;;-2.80;99.90;;;;;;5068558;28;20031;-79
2020/12/25 04:09:54;;;;;;;8.10;2.53;;;-2.80;99.90;;;;;;5060443;28;20111;-79
2020/12/25 04:12:20;;;;;;;17.15;4.28;;;-2.70;99.90;;;;;;5053146;28;20052;-79
2020/12/25 04:14:45;;;;;;;23.02;2.55;;;-2.80;99.90;;;;;;5051529;28;20397;-80
2020/12/25 04:17:11;;;;;;;9.15;2.42;;;-2.70;99.90;;;;;;5051561;28;20033;-79
2020/12/25 04:19:36;;;;;;;9.75;1.58;;;-2.70;99.90;;;;;;5052940;28;20021;-79
2020/12/25 04:22:02;;;;;;;4.60;2.30;;;-2.60;99.90;;;;;;5052900;28;20040;-80
2020/12/25 04:24:28;;;;;;;6.80;2.08;;;-2.60;99.90;;;;;;5051332;28;20021;-80
2020/12/25 04:26:53;;;;;;;19.63;2.63;;;-2.60;99.90;;;;;;5062246;28;20024;-79
2020/12/25 04:29:19;;;;;;;26.45;3.35;;;-2.60;99.90;;;;;;5072661;28;20017;-79
2020/12/25 04:31:45;;;;;;;13.82;1.63;;;-2.50;99.90;;;;;;5072669;28;20024;-79
2020/12/25 04:34:10;;;;;;;16.38;2.97;;;-2.40;99.90;;;;;;5071202;28;20063;-79
2020/12/25 04:36:36;;;;;;;14.30;2.72;;;-2.20;99.90;;;;;;5071319;28;20097;-79
2020/12/25 04:39:03;;;;;;;16.15;2.92;;;-2.10;99.90;;;;;;5072391;28;20093;-80
2020/12/25 04:41:31;;;;;;;7.25;2.08;;;-2.10;99.90;;;;;;5072534;28;20021;-80
2020/12/25 04:43:58;;;;;;;20.23;2.85;;;-2.10;99.90;;;;;;5072344;28;20534;-79
2020/12/25 04:46:23;;;;;;;12.90;2.45;;;-2.00;99.90;;;;;;5072373;28;20032;-79
2020/12/25 04:48:49;;;;;;;9.95;2.55;;;-2.00;99.90;;;;;;5071052;28;20024;-79
2020/12/25 04:51:15;;;;;;;19.88;2.10;;;-1.90;99.90;;;;;;5072362;28;20033;-80
2020/12/25 04:53:41;;;;;;;15.77;2.40;;;-1.70;99.90;;;;;;5070865;28;20115;-79
2020/12/25 04:56:06;;;;;;;14.02;2.60;;;-1.70;99.90;;;;;;5072071;28;20028;-80
2020/12/25 04:58:32;;;;;;;14.63;2.17;;;-1.70;99.90;;;;;;5072122;28;20070;-80
2020/12/25 05:01:05;;;;;;;17.63;2.47;;;-1.70;99.90;;;;;;5072177;28;20029;-79
2020/12/25 05:03:39;;;;;;;12.63;2.00;;;-1.70;99.90;;;;;;5071837;28;20091;-79
2020/12/25 05:06:05;;;;;;;;;;;-1.70;99.90;;;;;;5072447;28;20022;-79
2020/12/25 05:08:44;;;;;;;8.57;2.05;;;-1.80;99.90;;;;;;5072068;28;20391;-79
2020/12/25 05:11:11;;;;;;;6.85;1.52;;;-1.90;99.90;;;;;;5050807;28;20033;-80
2020/12/25 05:13:51;;;;;;;14.63;2.13;;;-1.80;99.90;;;;;;5051907;28;20028;-79
2020/12/25 05:16:18;;;;;;;9.68;2.25;;;-1.70;99.90;;;;;;5051686;28;20043;-79
2020/12/25 05:18:47;;;;;;;10.25;2.28;;;-1.70;99.90;;;;;;5051891;28;20017;-79
2020/12/25 05:21:15;;;;;;;8.63;2.08;;;-1.70;99.90;;;;;;5051951;28;20013;-79
2020/12/25 05:23:44;;;;;;;11.85;2.17;;;-1.80;99.90;;;;;;5051796;28;20024;-79
2020/12/25 05:26:11;;;;;;;10.00;2.35;;;-1.80;99.90;;;;;;5051826;28;20036;-80
2020/12/25 05:28:45;;;;;;;4.07;1.67;;;-1.90;99.90;;;;;;5051661;28;20025;-80
2020/12/25 05:31:11;;;;;;;8.60;2.50;;;-2.00;99.90;;;;;;5051831;28;20025;-79
2020/12/25 05:33:38;;;;;;;9.25;2.75;;;-2.10;99.90;;;;;;5050532;28;20116;-80
2020/12/25 05:36:06;;;;;;;7.78;2.45;;;-2.20;99.90;;;;;;5051576;28;20025;-80
2020/12/25 05:38:32;;;;;;;8.52;2.88;;;-2.30;99.90;;;;;;5051629;28;20474;-79
2020/12/25 05:41:01;;;;;;;4.93;2.00;;;-2.30;99.90;;;;;;5051639;28;20021;-79
2020/12/25 05:43:27;;;;;;;4.95;1.77;;;-2.40;99.90;;;;;;5051728;28;20025;-79
2020/12/25 05:45:53;;;;;;;13.35;2.10;;;-2.50;99.90;;;;;;5051570;28;20047;-80
2020/12/25 05:48:18;;;;;;;9.55;2.00;;;-2.50;99.90;;;;;;5051704;28;20413;-80
2020/12/25 05:50:44;;;;;;;11.25;1.90;;;-2.60;99.90;;;;;;5051637;28;20524;-80
2020/12/25 05:53:10;;;;;;;12.30;2.10;;;-2.60;99.90;;;;;;5051588;28;20029;-80
2020/12/25 05:55:37;;;;;;;11.63;2.15;;;-2.60;99.90;;;;;;5051257;28;20027;-79
2020/12/25 05:58:04;;;;;;;13.98;2.20;;;-2.60;99.90;;;;;;5051495;28;20025;-79
2020/12/25 06:00:30;;;;;;;10.40;1.95;;;-2.60;99.90;;;;;;5051403;28;20032;-79
2020/12/25 06:02:56;;;;;;;6.90;2.13;;;-2.70;99.90;;;;;;5049818;28;20021;-80
2020/12/25 06:05:23;;;;;;;17.50;2.45;;;-2.60;99.90;;;;;;5051247;28;20032;-79
2020/12/25 06:07:56;;;;;;;12.98;2.47;;;-2.60;99.90;;;;;;5051309;28;20021;-80
2020/12/25 06:10:27;;;;;;;9.45;1.80;;;-2.70;99.90;;;;;;5069127;28;20035;-79
2020/12/25 06:12:54;;;;;;;12.00;1.98;;;-2.60;99.90;;;;;;5074101;28;20483;-80
2020/12/25 06:15:32;;;;;;;8.20;1.85;;;-2.60;99.90;;;;;;5073748;28;20029;-79
2020/12/25 06:18:09;;;;;;;13.52;1.90;;;-2.60;99.90;;;;;;5075238;28;20071;-79
2020/12/25 06:20:38;;;;;;;16.00;2.28;;;-2.60;99.90;;;;;;5075208;28;20063;-79
2020/12/25 06:23:06;;;;;;;7.10;1.52;;;-2.60;99.90;;;;;;5074135;28;20108;-80
2020/12/25 06:25:32;;;;;;;13.88;2.20;;;-2.60;99.90;;;;;;5073697;28;20021;-80
2020/12/25 06:28:00;;;;;;;5.75;1.70;;;-2.70;99.90;;;;;;5073764;28;20060;-80
2020/12/25 06:30:28;;;;;;;7.22;1.65;;;-2.80;99.90;;;;;;5075070;28;20420;-79
2020/12/25 06:32:56;;;;;;;13.32;2.15;;;-2.90;99.90;;;;;;5073595;28;20104;-79
2020/12/25 06:35:40;;;;;;;5.47;1.83;;;-2.90;99.90;;;;;;5074671;28;20447;-79
2020/12/25 06:38:18;;;;;;;9.32;1.83;;;-2.80;99.90;;;;;;5073577;28;20017;-79
2020/12/25 06:40:44;;;;;;;6.13;2.30;;;-2.90;99.90;;;;;;5074850;28;20362;-79
2020/12/25 06:43:18;;;;;;;4.38;1.60;;;-2.90;99.90;;;;;;5073417;28;20044;-79
2020/12/25 06:46:02;;;;;;;;;;;-3.00;99.90;;;;;;5075026;28;20033;-80
2020/12/25 06:48:29;;;;;;;2.70;1.60;;;-3.10;99.90;;;;;;5074731;28;19958;-80
2020/12/25 06:50:57;;;;;;;8.30;2.55;;;-3.10;99.90;;;;;;5073382;28;20024;-79
2020/12/25 06:53:42;;;;;;;8.55;3.35;;;-3.10;99.90;;;;;;5074634;28;20641;-79
2020/12/25 06:56:20;;;;;;;8.48;2.33;;;-3.10;99.90;;;;;;5074473;28;20029;-80
2020/12/25 06:58:53;;;;;;;9.02;1.83;;;-3.20;99.90;;;;;;5074368;28;20044;-79
2020/12/25 07:01:37;;;;;;;;;;;-3.20;99.90;;;;;;5073626;28;20481;-79
2020/12/25 07:04:04;;;;;;;3.33;1.70;;;-3.20;99.90;;;;;;5074258;28;19916;-80
2020/12/25 07:06:31;;;;;;;10.07;2.10;;;-3.20;99.90;;;;;;5074340;28;20028;-79
2020/12/25 07:09:09;;;;;;;6.45;1.90;;;-3.20;99.90;;;;;;5070884;28;20043;-79
2020/12/25 07:11:36;;;;;;;7.20;2.13;;;-3.30;99.90;;;;;;5054305;28;20025;-79
2020/12/25 07:14:01;;;;;;;3.15;1.42;;;-3.40;99.90;;;;;;5053907;28;20384;-79
2020/12/25 07:16:27;;;;;;;8.80;2.58;;;-3.40;99.90;;;;;;5054004;28;20112;-80
2020/12/25 07:18:52;;;;;;;7.63;2.05;;;-3.40;99.90;;;;;;5052752;28;20496;-80
2020/12/25 07:21:18;;;;;;;6.90;2.40;;;-3.50;99.90;;;;;;5052895;28;20021;-80
2020/12/25 07:23:45;;;;;;;11.90;2.63;;;-3.50;99.90;;;;;;5053848;28;20021;-79
2020/12/25 07:26:11;;;;;;;10.48;2.50;;;-3.50;99.90;;;;;;5052692;28;20032;-80
2020/12/25 07:28:38;;;;;;;12.30;2.10;;;-3.50;99.90;;;;;;5053706;28;20048;-79
2020/12/25 07:31:04;;;;;;;12.68;2.75;;;-3.50;99.90;;;;;;5053938;28;20021;-80
2020/12/25 07:33:29;;;;;;;5.25;2.58;;;-3.50;99.90;;;;;;5068700;28;20102;-80
2020/12/25 07:35:55;;;;;;;6.43;2.10;;;-3.50;99.90;;;;;;5072245;28;20040;-79
2020/12/25 07:38:21;;;;;;;9.38;2.78;;;-3.60;99.90;;;;;;5073700;28;20036;-79
2020/12/25 07:40:47;;;;;;;11.93;4.10;;;-3.60;99.90;;;;;;5073729;28;20448;-80
2020/12/25 07:43:13;;;;;;;12.52;3.05;;;-3.50;99.90;;;;;;5073532;28;20527;-79
2020/12/25 07:45:40;;;;;;;9.98;3.25;;;-3.50;99.90;;;;;;5073437;28;20081;-80
2020/12/25 07:48:07;;;;;;;7.85;3.40;;;-3.40;99.90;;;;;;5072310;28;20028;-80
2020/12/25 07:50:43;;;;;;;13.13;3.47;;;-3.40;99.90;;;;;;5073546;28;20484;-80
2020/12/25 07:53:15;;;;;;;11.70;3.20;;;-3.40;99.90;;;;;;5073409;28;20028;-80
2020/12/25 07:55:47;;;;;;;23.58;6.70;;;-3.50;99.90;;;;;;5073135;28;20024;-80
2020/12/25 07:58:14;;;;;;;11.10;5.53;;;-3.50;99.90;;;;;;5073358;28;20036;-80
2020/12/25 08:00:40;;;;;;;21.35;4.05;;;-3.50;99.90;;;;;;5071558;28;20027;-80
2020/12/25 08:03:06;;;;;;;7.53;3.58;;;-3.40;99.90;;;;;;5071107;28;20021;-79
2020/12/25 08:05:32;;;;;;;15.63;2.83;;;-3.40;99.90;;;;;;5072740;28;20170;-80
2020/12/25 08:08:00;;;;;;;13.43;3.13;;;-3.30;99.90;;;;;;5072901;28;20497;-80
2020/12/25 08:10:26;;;;;;;12.73;3.13;;;-3.30;99.90;;;;;;5057185;28;20025;-79
2020/12/25 08:12:58;;;;;;;7.47;2.63;;;-3.20;99.90;;;;;;5068450;28;20102;-80
2020/12/25 08:15:25;;;;;;;10.02;3.03;;;-3.20;99.90;;;;;;5052646;28;20068;-79
2020/12/25 08:17:57;;;;;;;14.48;4.22;;;-3.20;99.90;;;;;;5052821;28;20124;-79
2020/12/25 08:20:23;;;;;;;7.88;2.63;;;-3.20;99.90;;;;;;5052776;28;20083;-80
2020/12/25 08:22:50;;;;;;;10.40;2.47;;;-3.10;99.90;;;;;;5068161;28;20116;-79
2020/12/25 08:25:17;;;;;;;8.18;2.17;;;-3.20;99.90;;;;;;5052439;28;20056;-79
2020/12/25 08:27:42;;;;;;;7.13;2.35;;;-3.10;99.90;;;;;;5052978;28;20083;-79
2020/12/25 08:30:08;;;;;;;4.68;2.40;;;-3.10;99.90;;;;;;5052663;28;20421;-80
2020/12/25 08:32:34;;;;;;;17.15;3.03;;;-3.10;99.90;;;;;;5052397;28;20025;-79
2020/12/25 08:35:18;;;;;;;17.10;2.60;;;-3.00;99.90;;;;;;5052185;28;20495;-79
2020/12/25 08:38:03;;;;;;;9.50;3.00;;;-2.90;99.90;;;;;;5052430;28;20109;-79
2020/12/25 08:40:33;;;;;;;15.27;2.90;;;-2.70;99.90;;;;;;5067782;28;20033;-79
2020/12/25 08:43:10;;;;;;;15.30;3.35;;;-2.60;99.90;;;;;;5052737;28;20491;-79
2020/12/25 08:45:38;;;;;;;10.50;3.47;;;-2.60;99.90;;;;;;5052298;28;20504;-79
2020/12/25 08:48:12;;;;;;;10.52;4.25;;;-2.50;99.90;;;;;;5052312;28;20112;-80
2020/12/25 08:50:40;;;;;;;13.57;4.38;;;-2.40;99.90;;;;;;5067768;28;20075;-79
2020/12/25 08:53:22;;;;;;;9.00;3.40;;;-2.30;99.90;;;;;;5067570;28;20196;-79
2020/12/25 08:55:50;;;;;;;9.30;4.30;;;-2.30;99.90;;;;;;5067190;28;20031;-80
2020/12/25 08:58:17;;;;;;;13.35;3.55;;;-2.30;99.90;;;;;;5052158;28;20071;-79
2020/12/25 09:00:43;;;;;;;10.57;4.03;;;-2.20;99.90;;;;;;5056893;28;20040;-79
2020/12/25 09:03:08;;;;;;;13.32;3.75;;;-2.10;99.90;;;;;;5071661;28;20020;-79
2020/12/25 09:05:34;;;;;;;17.90;3.47;;;-2.00;99.90;;;;;;5071759;28;20032;-79
2020/12/25 09:08:00;;;;;;;12.45;3.70;;;-1.90;99.90;;;;;;5071744;28;20392;-80
2020/12/25 09:10:26;;;;;;;12.02;3.45;;;-1.90;99.90;;;;;;5055056;28;20027;-79
2020/12/25 09:12:51;;;;;;;7.45;3.15;;;-1.80;99.90;;;;;;5052045;28;20100;-80
2020/12/25 09:15:17;;;;;;;11.00;3.63;;;-1.80;99.90;;;;;;5051602;28;20072;-79
2020/12/25 09:17:42;;;;;;;5.55;2.72;;;-1.70;99.90;;;;;;5051930;28;20083;-79
2020/12/25 09:20:08;;;;;;;11.45;3.50;;;-1.70;99.90;;;;;;5050457;28;20025;-79
2020/12/25 09:22:34;;;;;;;11.90;2.92;;;-1.70;99.90;;;;;;5051795;28;20389;-79
2020/12/25 09:24:59;;;;;;;16.20;2.90;;;-1.60;99.90;;;;;;5051501;28;20040;-79
2020/12/25 09:27:25;;;;;;;9.07;2.67;;;-1.60;99.90;;;;;;5051662;28;20439;-79
2020/12/25 09:29:50;;;;;;;14.48;3.33;;;-1.40;99.90;;;;;;5052630;28;20039;-78
2020/12/25 09:32:16;;;;;;;21.65;3.58;;;-1.30;99.90;;;;;;5070946;28;20024;-79
2020/12/25 09:34:41;;;;;;;9.85;2.95;;;-1.20;99.90;;;;;;5071636;28;20032;-79
2020/12/25 09:37:07;;;;;;;9.23;3.10;;;-1.20;99.90;;;;;;5071505;28;20551;-79
2020/12/25 09:39:33;;;;;;;12.95;3.15;;;-1.20;99.90;;;;;;5071596;28;20029;-79
2020/12/25 09:41:58;;;;;;;24.15;4.05;;;-1.20;99.90;;;;;;5071535;28;20025;-79
2020/12/25 09:44:24;;;;;;;10.18;2.60;;;-1.10;99.90;;;;;;5075473;28;20472;-79
2020/12/25 09:46:49;;;;;;;24.40;3.42;;;-1.10;99.90;;;;;;5078101;28;20024;-79
2020/12/25 09:49:15;;;;;;;15.45;2.53;;;-1.10;99.90;;;;;;5077407;28;20036;-79
2020/12/25 09:51:40;;;;;;;8.65;2.88;;;-0.90;99.90;;;;;;5078098;28;20038;-79
2020/12/25 09:54:06;;;;;;;12.32;3.20;;;-0.80;99.90;;;;;;5075475;28;20104;-79
2020/12/25 09:56:31;;;;;;;10.27;3.47;;;-0.80;99.90;;;;;;5057873;28;20232;-79
2020/12/25 09:58:57;;;;;;;9.93;3.10;;;-0.80;99.90;;;;;;5057787;28;20018;-79
2020/12/25 10:01:22;;;;;;;8.57;3.13;;;-0.70;99.90;;;;;;5058033;28;20021;-79
2020/12/25 10:03:48;;;;;;;10.07;3.50;;;-0.70;99.90;;;;;;5066631;28;20488;-79
2020/12/25 10:06:19;;;;;;;10.38;3.88;;;-0.60;99.90;;;;;;5077873;28;20035;-79
2020/12/25 10:08:44;;;;;;;12.57;3.35;;;-0.50;99.90;;;;;;5076359;28;20071;-80
2020/12/25 10:11:10;;;;;;;9.52;2.95;;;-0.50;99.90;;;;;;5058039;28;20025;-80
2020/12/25 10:13:35;;;;;;;17.95;5.15;;;-0.40;99.90;;;;;;5057865;28;20036;-79
2020/12/25 10:16:01;;;;;;;68.45;24.38;;;-0.40;99.90;;;;;;5057741;28;20465;-79
2020/12/25 10:18:26;;;;;;;264.25;94.65;;;-0.40;99.90;;;;;;5056503;28;20021;-78
2020/12/25 10:20:52;;;;;;;268.17;95.07;;;-0.30;99.90;;;;;;5057853;28;20021;-79
2020/12/25 10:23:18;;;;;;;286.25;104.45;;;-0.30;99.90;;;;;;5057913;28;20025;-79
2020/12/25 10:25:43;;;;;;;301.73;117.57;;;-0.20;99.90;;;;;;5057563;28;20032;-79
2020/12/25 10:28:09;;;;;;;359.77;144.45;;;-0.20;99.90;;;;;;5057761;28;20025;-78
2020/12/25 10:30:34;;;;;;;221.63;94.68;;;-0.10;99.90;;;;;;5057936;28;20401;-79
2020/12/25 10:33:00;;;;;;;166.95;71.70;;;0.00;99.90;;;;;;5056803;28;20033;-79
2020/12/25 10:35:25;;;;;;;134.88;59.00;;;0.00;99.90;;;;;;5057454;28;20029;-80
2020/12/25 10:37:51;;;;;;;276.63;107.50;;;0.00;99.90;;;;;;5057659;28;20100;-80
2020/12/25 10:40:17;;;;;;;313.70;110.20;;;0.10;99.90;;;;;;5062198;28;20036;-79
2020/12/25 10:42:42;;;;;;;177.23;62.33;;;0.20;99.90;;;;;;5076335;28;20024;-79
2020/12/25 10:45:08;;;;;;;215.15;71.35;;;0.30;99.90;;;;;;5077596;28;20060;-79
2020/12/25 10:47:34;;;;;;;215.10;72.47;;;0.40;99.90;;;;;;5077501;28;20081;-79
2020/12/25 10:49:59;;;;;;;225.07;75.78;;;0.50;99.90;;;;;;5076223;28;20032;-79
2020/12/25 10:52:25;;;;;;;172.45;52.70;;;0.60;99.90;;;;;;5077656;28;20040;-79
2020/12/25 10:54:50;;;;;;;298.00;102.38;;;0.70;99.90;;;;;;5075789;28;20536;-79
2020/12/25 10:57:16;;;;;;;103.00;43.95;;;0.80;99.90;;;;;;5060392;28;20485;-79
2020/12/25 10:59:41;;;;;;;44.78;21.17;;;0.80;99.90;;;;;;5054484;28;20021;-79
2020/12/25 11:02:07;;;;;;;76.43;24.02;;;1.00;99.90;;;;;;5062301;28;20078;-79
2020/12/25 11:04:33;;;;;;;113.45;35.33;;;0.90;99.90;;;;;;5060187;28;20033;-80
2020/12/25 11:06:59;;;;;;;53.10;17.50;;;1.10;99.90;;;;;;5052883;28;20033;-79
2020/12/25 11:09:24;;;;;;;52.72;17.42;;;1.00;99.90;;;;;;5061468;28;20436;-79
2020/12/25 11:11:50;;;;;;;58.45;15.98;;;1.00;99.90;;;;;;5071926;28;20025;-78
2020/12/25 11:14:15;;;;;;;38.90;11.65;;;1.20;99.90;;;;;;5072353;28;20028;-79
2020/12/25 11:16:41;;;;;;;129.38;34.10;;;1.20;99.90;;;;;;5073814;28;20064;-80
2020/12/25 11:19:08;;;;;;;31.08;4.45;;;1.20;99.90;;;;;;5072451;28;20020;-80
2020/12/25 11:21:34;;;;;;;64.10;16.58;;;1.30;99.90;;;;;;5072529;28;20017;-79
2020/12/25 11:24:01;;;;;;;48.13;13.07;;;1.30;99.90;;;;;;5073664;28;20033;-79
2020/12/25 11:26:28;;;;;;;75.72;18.10;;;1.30;99.90;;;;;;5072514;28;20476;-79
2020/12/25 11:28:56;;;;;;;9.45;2.55;;;1.40;99.90;;;;;;5073528;28;20060;-79
2020/12/25 11:31:23;;;;;;;14.80;5.00;;;1.40;99.90;;;;;;5071472;28;20574;-79
2020/12/25 11:33:49;;;;;;;26.13;9.38;;;1.50;99.90;;;;;;5072525;28;20066;-80
2020/12/25 11:36:25;;;;;;;37.35;10.43;;;1.50;99.90;;;;;;5072258;28;20028;-79
2020/12/25 11:38:52;;;;;;;15.98;4.43;;;1.50;99.90;;;;;;5073667;28;20445;-79
2020/12/25 11:41:19;;;;;;;9.38;2.83;;;1.50;99.90;;;;;;5072402;28;20028;-79
2020/12/25 11:43:47;;;;;;;8.70;4.43;;;1.60;99.90;;;;;;5073368;28;20050;-79
2020/12/25 11:46:13;;;;;;;7.13;3.20;;;1.60;99.90;;;;;;5067608;28;20057;-80
2020/12/25 11:48:39;;;;;;;9.63;3.40;;;1.50;99.90;;;;;;5054073;28;20025;-80
2020/12/25 11:51:05;;;;;;;8.05;3.45;;;1.60;99.90;;;;;;5053455;28;20029;-79
2020/12/25 11:53:31;;;;;;;9.35;3.13;;;1.70;99.90;;;;;;5068805;28;20040;-79
2020/12/25 11:55:57;;;;;;;12.88;3.63;;;1.70;99.90;;;;;;5068580;28;20029;-79
2020/12/25 11:58:22;;;;;;;18.98;3.55;;;1.70;99.90;;;;;;5055026;28;20029;-80
2020/12/25 12:00:48;;;;;;;11.32;3.22;;;1.70;99.90;;;;;;5053116;28;20508;-80
2020/12/25 12:03:14;;;;;;;13.63;3.40;;;1.80;99.90;;;;;;5051890;28;20021;-80
2020/12/25 12:05:43;;;;;;;6.95;2.45;;;1.70;99.90;;;;;;5052726;28;20021;-80
2020/12/25 12:08:10;;;;;;;14.27;3.08;;;1.80;99.90;;;;;;5053968;28;20033;-79
2020/12/25 12:10:36;;;;;;;5.22;2.65;;;1.80;99.90;;;;;;5053044;28;20550;-81
2020/12/25 12:13:02;;;;;;;11.13;3.40;;;1.80;99.90;;;;;;5053121;28;20111;-79
2020/12/25 12:15:28;;;;;;;8.75;3.30;;;1.90;99.90;;;;;;5052714;28;20017;-79
2020/12/25 12:17:54;;;;;;;8.20;2.67;;;1.90;99.90;;;;;;5057722;28;20032;-80
2020/12/25 12:20:19;;;;;;;4.30;2.22;;;2.00;99.90;;;;;;5071592;28;20025;-80
2020/12/25 12:22:45;;;;;;;5.20;1.90;;;2.00;99.90;;;;;;5073001;28;20032;-79
2020/12/25 12:25:10;;;;;;;13.10;2.17;;;2.10;99.90;;;;;;5072596;28;20099;-80
2020/12/25 12:27:36;;;;;;;5.35;2.28;;;2.10;99.90;;;;;;5062424;28;20469;-79
2020/12/25 12:30:04;;;;;;;4.82;2.50;;;2.20;99.90;;;;;;5052602;28;20037;-79
2020/12/25 12:32:29;;;;;;;7.28;2.53;;;2.20;99.90;;;;;;5052802;28;20100;-79
2020/12/25 12:34:55;;;;;;;6.80;2.58;;;2.40;99.90;;;;;;5052443;28;20450;-80
2020/12/25 12:37:20;;;;;;;7.00;2.60;;;2.60;99.90;;;;;;5057456;28;20047;-79
2020/12/25 12:39:46;;;;;;;13.73;3.08;;;2.80;99.90;;;;;;5072470;28;20033;-79